sensor_id;sensor_type;location;lat;lon;timestamp;temperature;humidity
20035;DHT22;10178;48.034;9.800;2023-08-31T00:01:31;17.00;99.90
20035;DHT22;10178;48.034;9.800;2023-08-31T00:03:59;17.10;99.90
20035;DHT22;10178;48.034;9.800;2023-08-31T00:06:25;17.20;99.90
20035;DHT22;10178;48.034;9.800;2023-08-31T00:08:51;17.30;99.90
20035;DHT22;10178;48.034;9.800;2023-08-31T00:11:16;17.40;99.90
20035;DHT22;10178;48.034;9.800;2023-08-31T00:13:42;17.40;99.90
20035;DHT22;10178;48.034;9.800;2023-08-31T00:16:08;17.40;99.90
20035;DHT22;10178;48.034;9.800;2023-08-31T00:18:35;17.50;99.90
20035;DHT22;10178;48.034;9.800;2023-08-31T00:21:04;17.40;99.90
20035;DHT22;10178;48.034;9.800;2023-08-31T00:23:30;17.40;99.90
20035;DHT22;10178;48.034;9.800;2023-08-31T00:25:55;17.40;99.90
20035;DHT22;10178;48.034;9.800;2023-08-31T00:28:22;17.40;99.90
20035;DHT22;10178;48.034;9.800;2023-08-31T00:30:48;17.40;99.90
20035;DHT22;10178;48.034;9.800;2023-08-31T00:33:14;17.40;99.90
20035;DHT22;10178;48.034;9.800;2023-08-31T00:35:41;17.40;99.90
20035;DHT22;10178;48.034;9.800;2023-08-31T00:38:12;17.40;99.90
20035;DHT22;10178;48.034;9.800;2023-08-31T00:40:41;17.40;99.90
20035;DHT22;10178;48.034;9.800;2023-08-31T00:43:10;17.30;99.90
20035;DHT22;10178;48.034;9.800;2023-08-31T00:45:37;17.10;99.90
20035;DHT22;10178;48.034;9.800;2023-08-31T00:48:04;17.10;99.90
20035;DHT22;10178;48.034;9.800;2023-08-31T00:50:30;17.10;99.90
20035;DHT22;10178;48.034;9.800;2023-08-31T00:52:56;17.10;99.90
20035;DHT22;10178;48.034;9.800;2023-08-31T00:55:22;17.20;99.90
20035;DHT22;10178;48.034;9.800;2023-08-31T00:57:48;17.20;99.90
20035;DHT22;10178;48.034;9.800;2023-08-31T01:00:14;17.20;99.90
20035;DHT22;10178;48.034;9.800;2023-08-31T01:03:01;17.20;99.90
20035;DHT22;10178;48.034;9.800;2023-08-31T01:13:33;17.00;99.90
20035;DHT22;10178;48.034;9.800;2023-08-31T01:16:05;17.10;99.90
20035;DHT22;10178;48.034;9.800;2023-08-31T01:18:32;17.10;99.90
20035;DHT22;10178;48.034;9.800;2023-08-31T01:23:54;17.10;99.90
20035;DHT22;10178;48.034;9.800;2023-08-31T01:26:24;17.20;99.90
20035;DHT22;10178;48.034;9.800;2023-08-31T01:28:51;17.10;99.90
20035;DHT22;10178;48.034;9.800;2023-08-31T01:31:17;16.70;99.90
20035;DHT22;10178;48.034;9.800;2023-08-31T01:37:06;16.80;99.90
20035;DHT22;10178;48.034;9.800;2023-08-31T01:39:39;16.50;99.90
20035;DHT22;10178;48.034;9.800;2023-08-31T01:42:11;16.70;99.90
20035;DHT22;10178;48.034;9.800;2023-08-31T01:44:39;16.90;99.90
20035;DHT22;10178;48.034;9.800;2023-08-31T01:47:06;17.00;99.90
20035;DHT22;10178;48.034;9.800;2023-08-31T01:49:39;17.00;99.90
20035;DHT22;10178;48.034;9.800;2023-08-31T01:52:05;17.00;99.90
20035;DHT22;10178;48.034;9.800;2023-08-31T01:54:31;16.70;99.90
20035;DHT22;10178;48.034;9.800;2023-08-31T01:56:57;16.50;99.90
20035;DHT22;10178;48.034;9.800;2023-08-31T01:59:23;16.50;99.90
20035;DHT22;10178;48.034;9.800;2023-08-31T02:01:49;16.20;99.90
20035;DHT22;10178;48.034;9.800;2023-08-31T02:04:14;16.20;99.90
20035;DHT22;10178;48.034;9.800;2023-08-31T02:06:40;16.30;99.90
20035;DHT22;10178;48.034;9.800;2023-08-31T02:09:06;15.20;99.90
20035;DHT22;10178;48.034;9.800;2023-08-31T02:11:31;14.70;99.90
20035;DHT22;10178;48.034;9.800;2023-08-31T02:14:00;14.60;99.90
20035;DHT22;10178;48.034;9.800;2023-08-31T02:16:26;14.80;99.90
20035;DHT22;10178;48.034;9.800;2023-08-31T02:18:51;14.60;99.90
20035;DHT22;10178;48.034;9.800;2023-08-31T02:21:17;14.30;99.90
20035;DHT22;10178;48.034;9.800;2023-08-31T02:23:43;14.00;99.90
20035;DHT22;10178;48.034;9.800;2023-08-31T02:26:10;13.70;99.90
20035;DHT22;10178;48.034;9.800;2023-08-31T02:28:36;13.70;99.90
20035;DHT22;10178;48.034;9.800;2023-08-31T02:31:02;13.80;99.90
20035;DHT22;10178;48.034;9.800;2023-08-31T02:33:28;13.90;99.90
20035;DHT22;10178;48.034;9.800;2023-08-31T02:35:55;14.30;99.90
20035;DHT22;10178;48.034;9.800;2023-08-31T02:38:21;14.00;99.90
20035;DHT22;10178;48.034;9.800;2023-08-31T02:40:47;13.70;99.90
20035;DHT22;10178;48.034;9.800;2023-08-31T02:43:14;13.70;99.90
20035;DHT22;10178;48.034;9.800;2023-08-31T02:45:39;13.60;99.90
20035;DHT22;10178;48.034;9.800;2023-08-31T02:48:08;13.30;99.90
20035;DHT22;10178;48.034;9.800;2023-08-31T02:50:34;13.20;99.90
20035;DHT22;10178;48.034;9.800;2023-08-31T02:53:00;13.20;99.90
20035;DHT22;10178;48.034;9.800;2023-08-31T02:55:26;13.20;99.90
20035;DHT22;10178;48.034;9.800;2023-08-31T02:57:52;13.30;99.90
20035;DHT22;10178;48.034;9.800;2023-08-31T03:00:18;13.40;99.90
20035;DHT22;10178;48.034;9.800;2023-08-31T03:02:50;13.80;99.90
20035;DHT22;10178;48.034;9.800;2023-08-31T03:05:18;13.90;99.90
20035;DHT22;10178;48.034;9.800;2023-08-31T03:07:43;14.00;99.90
20035;DHT22;10178;48.034;9.800;2023-08-31T03:10:09;13.90;99.90
20035;DHT22;10178;48.034;9.800;2023-08-31T03:12:36;13.90;99.90
20035;DHT22;10178;48.034;9.800;2023-08-31T03:15:02;14.10;99.90
20035;DHT22;10178;48.034;9.800;2023-08-31T03:17:28;14.40;99.90
20035;DHT22;10178;48.034;9.800;2023-08-31T03:19:53;14.90;99.90
20035;DHT22;10178;48.034;9.800;2023-08-31T03:22:19;15.30;99.90
20035;DHT22;10178;48.034;9.800;2023-08-31T03:24:44;15.70;99.90
20035;DHT22;10178;48.034;9.800;2023-08-31T03:27:10;16.00;99.90
20035;DHT22;10178;48.034;9.800;2023-08-31T03:29:36;16.20;99.90
20035;DHT22;10178;48.034;9.800;2023-08-31T03:32:02;16.30;99.90
20035;DHT22;10178;48.034;9.800;2023-08-31T03:34:31;16.40;99.90
20035;DHT22;10178;48.034;9.800;2023-08-31T03:36:58;16.50;99.90
20035;DHT22;10178;48.034;9.800;2023-08-31T03:39:24;16.50;99.90
20035;DHT22;10178;48.034;9.800;2023-08-31T03:41:50;16.50;99.90
20035;DHT22;10178;48.034;9.800;2023-08-31T03:44:16;16.50;99.90
20035;DHT22;10178;48.034;9.800;2023-08-31T03:46:42;16.30;99.90
20035;DHT22;10178;48.034;9.800;2023-08-31T03:49:08;16.00;99.90
20035;DHT22;10178;48.034;9.800;2023-08-31T03:51:33;15.70;99.90
20035;DHT22;10178;48.034;9.800;2023-08-31T03:53:59;15.40;99.90
20035;DHT22;10178;48.034;9.800;2023-08-31T03:56:25;15.10;99.90
20035;DHT22;10178;48.034;9.800;2023-08-31T03:58:50;14.70;99.90
20035;DHT22;10178;48.034;9.800;2023-08-31T04:01:16;14.40;99.90
20035;DHT22;10178;48.034;9.800;2023-08-31T04:03:43;14.40;99.90
20035;DHT22;10178;48.034;9.800;2023-08-31T04:06:09;14.20;99.90
20035;DHT22;10178;48.034;9.800;2023-08-31T04:08:34;14.30;99.90
20035;DHT22;10178;48.034;9.800;2023-08-31T04:11:00;14.60;99.90
20035;DHT22;10178;48.034;9.800;2023-08-31T04:13:26;14.30;99.90
20035;DHT22;10178;48.034;9.800;2023-08-31T04:15:52;14.30;99.90
20035;DHT22;10178;48.034;9.800;2023-08-31T04:18:18;14.10;99.90
20035;DHT22;10178;48.034;9.800;2023-08-31T04:20:52;13.90;99.90
20035;DHT22;10178;48.034;9.800;2023-08-31T04:23:18;13.60;99.90
20035;DHT22;10178;48.034;9.800;2023-08-31T04:25:45;13.80;99.90
20035;DHT22;10178;48.034;9.800;2023-08-31T04:28:10;14.10;99.90
20035;DHT22;10178;48.034;9.800;2023-08-31T04:30:36;14.00;99.90
20035;DHT22;10178;48.034;9.800;2023-08-31T04:33:02;14.00;99.90
20035;DHT22;10178;48.034;9.800;2023-08-31T04:35:30;14.30;99.90
20035;DHT22;10178;48.034;9.800;2023-08-31T04:37:57;14.90;99.90
20035;DHT22;10178;48.034;9.800;2023-08-31T04:40:23;15.00;99.90
20035;DHT22;10178;48.034;9.800;2023-08-31T04:42:48;14.40;99.90
20035;DHT22;10178;48.034;9.800;2023-08-31T04:45:14;13.90;99.90
20035;DHT22;10178;48.034;9.800;2023-08-31T04:47:39;14.10;99.90
20035;DHT22;10178;48.034;9.800;2023-08-31T04:50:06;14.10;99.90
20035;DHT22;10178;48.034;9.800;2023-08-31T04:52:32;14.50;99.90
20035;DHT22;10178;48.034;9.800;2023-08-31T04:54:58;14.50;99.90
20035;DHT22;10178;48.034;9.800;2023-08-31T04:57:23;14.80;99.90
20035;DHT22;10178;48.034;9.800;2023-08-31T04:59:49;14.80;99.90
20035;DHT22;10178;48.034;9.800;2023-08-31T05:02:15;14.20;99.90
20035;DHT22;10178;48.034;9.800;2023-08-31T05:04:40;13.70;99.90
20035;DHT22;10178;48.034;9.800;2023-08-31T05:07:06;13.70;99.90
20035;DHT22;10178;48.034;9.800;2023-08-31T05:09:32;13.80;99.90
20035;DHT22;10178;48.034;9.800;2023-08-31T05:12:00;14.00;99.90
20035;DHT22;10178;48.034;9.800;2023-08-31T05:14:27;14.60;99.90
20035;DHT22;10178;48.034;9.800;2023-08-31T05:16:52;15.10;99.90
20035;DHT22;10178;48.034;9.800;2023-08-31T05:19:18;15.40;99.90
20035;DHT22;10178;48.034;9.800;2023-08-31T05:21:44;15.70;99.90
20035;DHT22;10178;48.034;9.800;2023-08-31T05:24:09;15.90;99.90
20035;DHT22;10178;48.034;9.800;2023-08-31T05:26:35;16.00;99.90
20035;DHT22;10178;48.034;9.800;2023-08-31T05:29:00;16.10;99.90
20035;DHT22;10178;48.034;9.800;2023-08-31T05:31:26;16.10;99.90
20035;DHT22;10178;48.034;9.800;2023-08-31T05:33:51;16.20;99.90
20035;DHT22;10178;48.034;9.800;2023-08-31T05:36:17;16.20;99.90
20035;DHT22;10178;48.034;9.800;2023-08-31T05:38:43;16.30;99.90
20035;DHT22;10178;48.034;9.800;2023-08-31T05:41:09;16.10;99.90
20035;DHT22;10178;48.034;9.800;2023-08-31T05:43:36;15.80;99.90
20035;DHT22;10178;48.034;9.800;2023-08-31T05:46:02;15.60;99.90
20035;DHT22;10178;48.034;9.800;2023-08-31T05:48:28;15.60;99.90
20035;DHT22;10178;48.034;9.800;2023-08-31T05:50:54;15.90;99.90
20035;DHT22;10178;48.034;9.800;2023-08-31T05:53:20;16.10;99.90
20035;DHT22;10178;48.034;9.800;2023-08-31T05:55:46;16.20;99.90
20035;DHT22;10178;48.034;9.800;2023-08-31T05:58:12;16.30;99.90
20035;DHT22;10178;48.034;9.800;2023-08-31T06:00:38;16.30;99.90
20035;DHT22;10178;48.034;9.800;2023-08-31T06:03:04;16.30;99.90
20035;DHT22;10178;48.034;9.800;2023-08-31T06:05:31;16.10;99.90
20035;DHT22;10178;48.034;9.800;2023-08-31T06:07:57;15.80;99.90
20035;DHT22;10178;48.034;9.800;2023-08-31T06:10:23;16.00;99.90
20035;DHT22;10178;48.034;9.800;2023-08-31T06:12:49;16.10;99.90
20035;DHT22;10178;48.034;9.800;2023-08-31T06:15:16;16.00;99.90
20035;DHT22;10178;48.034;9.800;2023-08-31T06:17:42;15.80;99.90
20035;DHT22;10178;48.034;9.800;2023-08-31T06:20:08;16.10;99.90
20035;DHT22;10178;48.034;9.800;2023-08-31T06:22:34;16.20;99.90
20035;DHT22;10178;48.034;9.800;2023-08-31T06:25:00;16.20;99.90
20035;DHT22;10178;48.034;9.800;2023-08-31T06:27:26;15.90;99.90
20035;DHT22;10178;48.034;9.800;2023-08-31T06:29:51;16.00;99.90
20035;DHT22;10178;48.034;9.800;2023-08-31T06:32:17;16.10;99.90
20035;DHT22;10178;48.034;9.800;2023-08-31T06:34:44;16.00;99.90
20035;DHT22;10178;48.034;9.800;2023-08-31T06:37:10;15.60;99.90
20035;DHT22;10178;48.034;9.800;2023-08-31T06:39:35;15.30;99.90
20035;DHT22;10178;48.034;9.800;2023-08-31T06:42:02;15.40;99.90
20035;DHT22;10178;48.034;9.800;2023-08-31T06:44:29;15.30;99.90
20035;DHT22;10178;48.034;9.800;2023-08-31T06:46:55;15.50;99.90
20035;DHT22;10178;48.034;9.800;2023-08-31T06:49:22;15.80;99.90
20035;DHT22;10178;48.034;9.800;2023-08-31T06:51:49;15.90;99.90
20035;DHT22;10178;48.034;9.800;2023-08-31T06:54:14;15.50;99.90
20035;DHT22;10178;48.034;9.800;2023-08-31T06:56:40;15.60;99.90
20035;DHT22;10178;48.034;9.800;2023-08-31T06:59:06;15.90;99.90
20035;DHT22;10178;48.034;9.800;2023-08-31T07:01:32;16.10;99.90
20035;DHT22;10178;48.034;9.800;2023-08-31T07:04:00;15.80;99.90
20035;DHT22;10178;48.034;9.800;2023-08-31T07:06:26;15.50;99.90
20035;DHT22;10178;48.034;9.800;2023-08-31T07:08:51;15.30;99.90
20035;DHT22;10178;48.034;9.800;2023-08-31T07:11:17;15.00;99.90
20035;DHT22;10178;48.034;9.800;2023-08-31T07:13:43;14.90;99.90
20035;DHT22;10178;48.034;9.800;2023-08-31T07:16:08;15.40;99.90
20035;DHT22;10178;48.034;9.800;2023-08-31T07:18:35;15.70;99.90
20035;DHT22;10178;48.034;9.800;2023-08-31T07:21:01;15.50;99.90
20035;DHT22;10178;48.034;9.800;2023-08-31T07:23:27;15.00;99.90
20035;DHT22;10178;48.034;9.800;2023-08-31T07:25:56;14.80;99.90
20035;DHT22;10178;48.034;9.800;2023-08-31T07:28:23;15.00;99.90
20035;DHT22;10178;48.034;9.800;2023-08-31T07:30:48;14.90;99.90
20035;DHT22;10178;48.034;9.800;2023-08-31T07:33:14;15.00;99.90
20035;DHT22;10178;48.034;9.800;2023-08-31T07:35:39;15.30;99.90
20035;DHT22;10178;48.034;9.800;2023-08-31T07:38:05;15.40;99.90
20035;DHT22;10178;48.034;9.800;2023-08-31T07:40:31;14.90;99.90
20035;DHT22;10178;48.034;9.800;2023-08-31T07:42:57;15.10;99.90
20035;DHT22;10178;48.034;9.800;2023-08-31T07:45:22;15.20;99.90
20035;DHT22;10178;48.034;9.800;2023-08-31T07:47:48;15.30;99.90
20035;DHT22;10178;48.034;9.800;2023-08-31T07:50:14;15.40;99.90
20035;DHT22;10178;48.034;9.800;2023-08-31T07:52:40;15.40;99.90
20035;DHT22;10178;48.034;9.800;2023-08-31T07:55:06;15.50;99.90
20035;DHT22;10178;48.034;9.800;2023-08-31T07:57:31;15.30;99.90
20035;DHT22;10178;48.034;9.800;2023-08-31T07:59:57;15.60;99.90
20035;DHT22;10178;48.034;9.800;2023-08-31T08:02:22;15.40;99.90
20035;DHT22;10178;48.034;9.800;2023-08-31T08:04:48;15.00;99.90
20035;DHT22;10178;48.034;9.800;2023-08-31T08:07:14;15.10;99.90
20035;DHT22;10178;48.034;9.800;2023-08-31T08:09:39;15.00;99.90
20035;DHT22;10178;48.034;9.800;2023-08-31T08:12:05;15.10;99.90
20035;DHT22;10178;48.034;9.800;2023-08-31T08:14:32;15.20;99.90
20035;DHT22;10178;48.034;9.800;2023-08-31T08:16:58;15.20;99.90
20035;DHT22;10178;48.034;9.800;2023-08-31T08:19:24;15.10;99.90
20035;DHT22;10178;48.034;9.800;2023-08-31T08:21:53;15.00;99.90
20035;DHT22;10178;48.034;9.800;2023-08-31T08:24:18;15.00;99.90
20035;DHT22;10178;48.034;9.800;2023-08-31T08:26:44;15.30;99.90
20035;DHT22;10178;48.034;9.800;2023-08-31T08:29:10;15.30;99.90
20035;DHT22;10178;48.034;9.800;2023-08-31T08:31:35;15.00;99.90
20035;DHT22;10178;48.034;9.800;2023-08-31T08:34:01;14.90;99.90
20035;DHT22;10178;48.034;9.800;2023-08-31T08:36:27;15.20;99.90
20035;DHT22;10178;48.034;9.800;2023-08-31T08:38:52;15.50;99.90
20035;DHT22;10178;48.034;9.800;2023-08-31T08:41:23;15.80;99.90
20035;DHT22;10178;48.034;9.800;2023-08-31T08:43:51;16.10;99.90
20035;DHT22;10178;48.034;9.800;2023-08-31T08:46:17;16.30;99.90
20035;DHT22;10178;48.034;9.800;2023-08-31T08:48:44;16.30;99.90
20035;DHT22;10178;48.034;9.800;2023-08-31T08:51:12;16.30;99.90
20035;DHT22;10178;48.034;9.800;2023-08-31T08:53:42;16.40;99.90
20035;DHT22;10178;48.034;9.800;2023-08-31T08:56:08;16.40;99.90
20035;DHT22;10178;48.034;9.800;2023-08-31T08:58:34;16.40;99.90
20035;DHT22;10178;48.034;9.800;2023-08-31T09:01:00;16.50;99.90
20035;DHT22;10178;48.034;9.800;2023-08-31T09:03:26;16.50;99.90
20035;DHT22;10178;48.034;9.800;2023-08-31T09:05:52;16.60;99.90
20035;DHT22;10178;48.034;9.800;2023-08-31T09:08:25;16.50;99.90
20035;DHT22;10178;48.034;9.800;2023-08-31T09:10:51;16.50;99.90
20035;DHT22;10178;48.034;9.800;2023-08-31T09:13:17;16.50;99.90
20035;DHT22;10178;48.034;9.800;2023-08-31T09:15:47;16.50;99.90
20035;DHT22;10178;48.034;9.800;2023-08-31T09:18:23;16.60;99.90
20035;DHT22;10178;48.034;9.800;2023-08-31T09:20:49;16.60;99.90
20035;DHT22;10178;48.034;9.800;2023-08-31T09:23:16;16.60;99.90
20035;DHT22;10178;48.034;9.800;2023-08-31T09:25:46;16.70;99.90
20035;DHT22;10178;48.034;9.800;2023-08-31T09:28:14;16.60;99.90
20035;DHT22;10178;48.034;9.800;2023-08-31T09:30:41;16.60;99.90
20035;DHT22;10178;48.034;9.800;2023-08-31T09:33:08;16.70;99.90
20035;DHT22;10178;48.034;9.800;2023-08-31T09:35:39;16.70;99.90
20035;DHT22;10178;48.034;9.800;2023-08-31T09:38:08;16.70;99.90
20035;DHT22;10178;48.034;9.800;2023-08-31T09:40:34;16.80;99.90
20035;DHT22;10178;48.034;9.800;2023-08-31T09:42:59;16.80;99.90
20035;DHT22;10178;48.034;9.800;2023-08-31T09:45:31;16.90;99.90
20035;DHT22;10178;48.034;9.800;2023-08-31T09:48:03;17.00;99.90
20035;DHT22;10178;48.034;9.800;2023-08-31T09:50:30;17.00;99.90
20035;DHT22;10178;48.034;9.800;2023-08-31T09:53:01;17.00;99.90
20035;DHT22;10178;48.034;9.800;2023-08-31T09:55:28;17.00;99.90
20035;DHT22;10178;48.034;9.800;2023-08-31T09:57:57;17.00;99.90
20035;DHT22;10178;48.034;9.800;2023-08-31T10:00:27;17.10;99.90
20035;DHT22;10178;48.034;9.800;2023-08-31T10:02:55;17.10;99.90
20035;DHT22;10178;48.034;9.800;2023-08-31T10:05:21;16.90;99.90
20035;DHT22;10178;48.034;9.800;2023-08-31T10:07:49;16.80;99.90
20035;DHT22;10178;48.034;9.800;2023-08-31T10:10:15;16.80;99.90
20035;DHT22;10178;48.034;9.800;2023-08-31T10:12:42;16.80;99.90
20035;DHT22;10178;48.034;9.800;2023-08-31T10:15:10;16.80;99.90
20035;DHT22;10178;48.034;9.800;2023-08-31T10:17:36;16.80;99.90
20035;DHT22;10178;48.034;9.800;2023-08-31T10:20:02;16.80;99.90
20035;DHT22;10178;48.034;9.800;2023-08-31T10:22:28;16.90;99.90
20035;DHT22;10178;48.034;9.800;2023-08-31T10:25:02;17.00;99.90
20035;DHT22;10178;48.034;9.800;2023-08-31T10:27:41;17.00;99.90
20035;DHT22;10178;48.034;9.800;2023-08-31T10:36:01;17.10;99.90
20035;DHT22;10178;48.034;9.800;2023-08-31T10:38:29;17.10;99.90
20035;DHT22;10178;48.034;9.800;2023-08-31T10:46:36;17.70;99.90
20035;DHT22;10178;48.034;9.800;2023-08-31T10:51:41;17.80;99.90
20035;DHT22;10178;48.034;9.800;2023-08-31T10:54:08;17.80;99.90
20035;DHT22;10178;48.034;9.800;2023-08-31T10:59:53;17.50;99.90
20035;DHT22;10178;48.034;9.800;2023-08-31T11:02:34;17.50;99.90
20035;DHT22;10178;48.034;9.800;2023-08-31T11:07:27;17.50;99.90
20035;DHT22;10178;48.034;9.800;2023-08-31T11:10:10;17.50;99.90
20035;DHT22;10178;48.034;9.800;2023-08-31T11:12:36;17.50;99.90
20035;DHT22;10178;48.034;9.800;2023-08-31T11:15:03;17.60;99.90
20035;DHT22;10178;48.034;9.800;2023-08-31T11:17:29;17.60;99.90
20035;DHT22;10178;48.034;9.800;2023-08-31T11:19:56;17.60;99.90
20035;DHT22;10178;48.034;9.800;2023-08-31T11:22:22;17.60;99.90
20035;DHT22;10178;48.034;9.800;2023-08-31T11:24:48;17.60;99.90
20035;DHT22;10178;48.034;9.800;2023-08-31T11:27:14;17.60;99.90
20035;DHT22;10178;48.034;9.800;2023-08-31T11:29:43;17.60;99.90
20035;DHT22;10178;48.034;9.800;2023-08-31T11:32:09;17.60;99.90
20035;DHT22;10178;48.034;9.800;2023-08-31T11:34:35;17.60;99.90
20035;DHT22;10178;48.034;9.800;2023-08-31T11:37:05;17.70;99.90
20035;DHT22;10178;48.034;9.800;2023-08-31T11:39:30;18.00;99.90
20035;DHT22;10178;48.034;9.800;2023-08-31T11:41:56;18.00;99.90
20035;DHT22;10178;48.034;9.800;2023-08-31T11:44:22;18.10;99.90
20035;DHT22;10178;48.034;9.800;2023-08-31T11:46:48;18.20;99.90
20035;DHT22;10178;48.034;9.800;2023-08-31T11:49:16;18.30;99.90
20035;DHT22;10178;48.034;9.800;2023-08-31T11:51:43;18.40;99.90
20035;DHT22;10178;48.034;9.800;2023-08-31T11:54:10;18.50;99.90
20035;DHT22;10178;48.034;9.800;2023-08-31T11:56:46;18.50;99.90
20035;DHT22;10178;48.034;9.800;2023-08-31T11:59:16;18.60;99.90
20035;DHT22;10178;48.034;9.800;2023-08-31T12:01:42;18.60;99.90
20035;DHT22;10178;48.034;9.800;2023-08-31T12:06:41;18.70;99.90
20035;DHT22;10178;48.034;9.800;2023-08-31T12:09:08;18.80;99.90
20035;DHT22;10178;48.034;9.800;2023-08-31T12:11:34;18.80;99.90
20035;DHT22;10178;48.034;9.800;2023-08-31T12:14:04;18.70;99.90
20035;DHT22;10178;48.034;9.800;2023-08-31T12:16:43;18.60;99.90
20035;DHT22;10178;48.034;9.800;2023-08-31T12:19:09;18.50;99.90
20035;DHT22;10178;48.034;9.800;2023-08-31T12:21:35;18.40;99.90
20035;DHT22;10178;48.034;9.800;2023-08-31T12:24:01;18.30;99.90
20035;DHT22;10178;48.034;9.800;2023-08-31T12:26:28;18.30;99.90
20035;DHT22;10178;48.034;9.800;2023-08-31T12:28:54;18.20;99.90
20035;DHT22;10178;48.034;9.800;2023-08-31T12:31:21;18.00;99.90
20035;DHT22;10178;48.034;9.800;2023-08-31T12:33:47;17.90;99.90
20035;DHT22;10178;48.034;9.800;2023-08-31T12:36:13;17.90;99.90
20035;DHT22;10178;48.034;9.800;2023-08-31T12:38:39;17.80;99.90
20035;DHT22;10178;48.034;9.800;2023-08-31T12:41:04;17.90;99.90
20035;DHT22;10178;48.034;9.800;2023-08-31T12:43:30;17.80;99.90
20035;DHT22;10178;48.034;9.800;2023-08-31T12:45:56;17.90;99.90
20035;DHT22;10178;48.034;9.800;2023-08-31T12:48:22;17.80;99.90
20035;DHT22;10178;48.034;9.800;2023-08-31T12:50:48;17.90;99.90
20035;DHT22;10178;48.034;9.800;2023-08-31T12:53:14;18.00;99.90
20035;DHT22;10178;48.034;9.800;2023-08-31T12:55:40;18.00;99.90
20035;DHT22;10178;48.034;9.800;2023-08-31T12:58:06;17.90;99.90
20035;DHT22;10178;48.034;9.800;2023-08-31T13:00:31;17.90;99.90
20035;DHT22;10178;48.034;9.800;2023-08-31T13:02:57;18.00;99.90
20035;DHT22;10178;48.034;9.800;2023-08-31T13:05:23;18.00;99.90
20035;DHT22;10178;48.034;9.800;2023-08-31T13:07:48;18.00;99.90
20035;DHT22;10178;48.034;9.800;2023-08-31T13:10:14;18.20;99.90
20035;DHT22;10178;48.034;9.800;2023-08-31T13:12:41;18.20;99.90
20035;DHT22;10178;48.034;9.800;2023-08-31T13:15:07;18.30;99.90
20035;DHT22;10178;48.034;9.800;2023-08-31T13:17:33;18.40;99.90
20035;DHT22;10178;48.034;9.800;2023-08-31T13:19:59;18.20;99.90
20035;DHT22;10178;48.034;9.800;2023-08-31T13:22:25;18.20;99.90
20035;DHT22;10178;48.034;9.800;2023-08-31T13:24:51;18.20;99.90
20035;DHT22;10178;48.034;9.800;2023-08-31T13:27:17;18.30;99.90
20035;DHT22;10178;48.034;9.800;2023-08-31T13:29:43;18.30;99.90
20035;DHT22;10178;48.034;9.800;2023-08-31T13:32:09;18.30;99.90
20035;DHT22;10178;48.034;9.800;2023-08-31T13:34:35;18.30;99.90
20035;DHT22;10178;48.034;9.800;2023-08-31T13:37:04;18.30;99.90
20035;DHT22;10178;48.034;9.800;2023-08-31T13:39:31;18.40;99.90
20035;DHT22;10178;48.034;9.800;2023-08-31T13:41:57;18.40;99.90
20035;DHT22;10178;48.034;9.800;2023-08-31T13:44:22;18.50;99.90
20035;DHT22;10178;48.034;9.800;2023-08-31T13:46:48;18.50;99.90
20035;DHT22;10178;48.034;9.800;2023-08-31T13:49:15;18.50;99.90
20035;DHT22;10178;48.034;9.800;2023-08-31T13:51:41;18.50;99.90
20035;DHT22;10178;48.034;9.800;2023-08-31T13:54:07;18.50;99.90
20035;DHT22;10178;48.034;9.800;2023-08-31T13:56:33;18.40;99.90
20035;DHT22;10178;48.034;9.800;2023-08-31T13:58:59;18.40;99.90
20035;DHT22;10178;48.034;9.800;2023-08-31T14:01:25;18.40;99.90
20035;DHT22;10178;48.034;9.800;2023-08-31T14:03:51;18.40;99.90
20035;DHT22;10178;48.034;9.800;2023-08-31T14:06:16;18.40;99.90
20035;DHT22;10178;48.034;9.800;2023-08-31T14:08:42;18.40;99.90
20035;DHT22;10178;48.034;9.800;2023-08-31T14:11:08;18.50;99.90
20035;DHT22;10178;48.034;9.800;2023-08-31T14:13:33;18.40;99.90
20035;DHT22;10178;48.034;9.800;2023-08-31T14:16:00;18.20;99.90
20035;DHT22;10178;48.034;9.800;2023-08-31T14:18:29;18.20;99.90
20035;DHT22;10178;48.034;9.800;2023-08-31T14:20:57;18.30;99.90
20035;DHT22;10178;48.034;9.800;2023-08-31T14:23:24;18.40;99.90
20035;DHT22;10178;48.034;9.800;2023-08-31T14:25:50;18.40;99.90
20035;DHT22;10178;48.034;9.800;2023-08-31T14:28:15;18.50;99.90
20035;DHT22;10178;48.034;9.800;2023-08-31T14:30:41;18.50;99.90
20035;DHT22;10178;48.034;9.800;2023-08-31T14:33:06;18.50;99.90
20035;DHT22;10178;48.034;9.800;2023-08-31T14:35:36;18.60;99.90
20035;DHT22;10178;48.034;9.800;2023-08-31T14:38:02;18.60;99.90
20035;DHT22;10178;48.034;9.800;2023-08-31T14:40:27;18.50;99.90
20035;DHT22;10178;48.034;9.800;2023-08-31T14:42:53;18.50;99.90
20035;DHT22;10178;48.034;9.800;2023-08-31T14:45:19;18.40;99.90
20035;DHT22;10178;48.034;9.800;2023-08-31T14:47:44;18.50;99.90
20035;DHT22;10178;48.034;9.800;2023-08-31T14:50:10;18.30;99.90
20035;DHT22;10178;48.034;9.800;2023-08-31T14:52:35;18.40;99.90
20035;DHT22;10178;48.034;9.800;2023-08-31T14:55:01;18.20;99.90
20035;DHT22;10178;48.034;9.800;2023-08-31T14:57:29;18.10;99.90
20035;DHT22;10178;48.034;9.800;2023-08-31T14:59:54;18.10;99.90
20035;DHT22;10178;48.034;9.800;2023-08-31T15:02:24;18.20;99.90
20035;DHT22;10178;48.034;9.800;2023-08-31T15:04:49;18.20;99.90
20035;DHT22;10178;48.034;9.800;2023-08-31T15:07:16;18.20;99.90
20035;DHT22;10178;48.034;9.800;2023-08-31T15:09:42;18.10;99.90
20035;DHT22;10178;48.034;9.800;2023-08-31T15:12:08;18.10;99.90
20035;DHT22;10178;48.034;9.800;2023-08-31T15:14:33;18.00;99.90
20035;DHT22;10178;48.034;9.800;2023-08-31T15:16:59;18.00;99.90
20035;DHT22;10178;48.034;9.800;2023-08-31T15:19:25;18.00;99.90
20035;DHT22;10178;48.034;9.800;2023-08-31T15:21:50;18.10;99.90
20035;DHT22;10178;48.034;9.800;2023-08-31T15:24:16;18.20;99.90
20035;DHT22;10178;48.034;9.800;2023-08-31T15:26:42;18.20;99.90
20035;DHT22;10178;48.034;9.800;2023-08-31T15:29:09;18.10;99.90
20035;DHT22;10178;48.034;9.800;2023-08-31T15:31:34;18.00;99.90
20035;DHT22;10178;48.034;9.800;2023-08-31T15:34:00;17.90;99.90
20035;DHT22;10178;48.034;9.800;2023-08-31T15:36:26;18.00;99.90
20035;DHT22;10178;48.034;9.800;2023-08-31T15:38:51;17.90;99.90
20035;DHT22;10178;48.034;9.800;2023-08-31T15:41:17;18.00;99.90
20035;DHT22;10178;48.034;9.800;2023-08-31T15:43:42;18.20;99.90
20035;DHT22;10178;48.034;9.800;2023-08-31T15:46:08;18.20;99.90
20035;DHT22;10178;48.034;9.800;2023-08-31T15:48:37;18.30;99.90
20035;DHT22;10178;48.034;9.800;2023-08-31T15:51:03;18.40;99.90
20035;DHT22;10178;48.034;9.800;2023-08-31T15:53:29;18.80;99.90
20035;DHT22;10178;48.034;9.800;2023-08-31T15:55:55;18.70;99.90
20035;DHT22;10178;48.034;9.800;2023-08-31T15:58:21;18.70;99.90
20035;DHT22;10178;48.034;9.800;2023-08-31T16:00:47;18.90;99.90
20035;DHT22;10178;48.034;9.800;2023-08-31T16:03:12;19.00;99.90